Medaryville, Indiana
Current Conditions -  °F | °C
As of 9:55 PM on Sunday 23 Nov 2014 (Local Time) from KRZL Reporting Station
Moderate Rain Moderate Rain  
Wind Chill: 50°   Ceiling: 400
Heat Index: 50°   Visibility: 1.7mi
Dew Point: 50°   Wind: 0mph
Humidity: 100%   Direction: NA
Pressure: 29.15"   Gusts: NA
Location:  41.08°N, 86.89°W
Report Text: KRZL 240355Z AUTO 00000KT 1 3/4SM RA OVC004 10/10 A2915 RMK AO2 P0006
Loading
Personal Weather Stations






























Interactive Weather Map New forecast layout! Learn more

10-Day Weather Forecast

Advertisements
Track Severe Weather on mobile